Time;durP1;ratioP1;P1;durP2;ratioP2;P2;SDS_P1;SDS_P2;PMS_P1;PMS_P2;Temp;Humidity;BMP_temperature;BMP_pressure;BME280_temperature;BME280_humidity;BME280_pressure;Samples;Min_cycle;Max_cycle;Signal;HPM_P1;HPM_P2
2023/11/11 00:00:13;;;;;;;39.75;27.55;;;;;;;;;;5052988;28;20048;-50
2023/11/11 00:02:40;;;;;;;36.70;27.40;;;;;;;;;;5053652;28;20033;-49
2023/11/11 00:05:06;;;;;;;38.40;26.52;;;;;;;;;;5053745;28;20048;-50
2023/11/11 00:07:35;;;;;;;31.92;25.40;;;;;;;;;;5053104;28;20032;-52
2023/11/11 00:10:01;;;;;;;36.35;27.33;;;;;;;;;;5053936;28;20021;-50
2023/11/11 00:12:27;;;;;;;35.00;26.88;;;;;;;;;;5053671;28;20017;-50
2023/11/11 00:14:53;;;;;;;35.88;27.20;;;;;;;;;;5047422;28;20036;-52
2023/11/11 00:17:19;;;;;;;36.13;27.35;;;;;;;;;;5053529;28;20041;-49
2023/11/11 00:19:47;;;;;;;37.95;26.92;;;;;;;;;;5053583;28;20111;-50
2023/11/11 00:22:13;;;;;;;37.25;28.42;;;;;;;;;;5047886;28;20163;-48
2023/11/11 00:24:39;;;;;;;38.95;27.85;;;;;;;;;;5053679;28;20375;-49
2023/11/11 00:27:06;;;;;;;35.13;27.13;;;;;;;;;;5052050;28;20025;-52
2023/11/11 00:29:32;;;;;;;37.80;28.33;;;;;;;;;;5045678;28;20031;-52
2023/11/11 00:31:58;;;;;;;40.53;28.88;;;;;;;;;;5053258;28;20445;-51
2023/11/11 00:34:24;;;;;;;37.85;28.10;;;;;;;;;;5053068;28;20036;-51
2023/11/11 00:36:51;;;;;;;38.80;29.27;;;;;;;;;;5053535;28;20048;-49
2023/11/11 00:39:20;;;;;;;37.58;28.33;;;;;;;;;;5051348;28;20029;-53
2023/11/11 00:41:46;;;;;;;38.03;29.20;;;;;;;;;;5052850;28;20110;-50
2023/11/11 00:44:12;;;;;;;40.40;29.70;;;;;;;;;;5049787;28;20386;-49
2023/11/11 00:46:42;;;;;;;37.95;28.13;;;;;;;;;;5050314;28;20114;-53
2023/11/11 00:49:09;;;;;;;40.33;28.35;;;;;;;;;;5052225;28;20475;-55
2023/11/11 00:51:38;;;;;;;38.33;27.60;;;;;;;;;;5049451;28;20036;-49
2023/11/11 00:54:05;;;;;;;41.08;29.35;;;;;;;;;;5045467;28;20025;-51
2023/11/11 00:56:31;;;;;;;40.80;28.10;;;;;;;;;;5047738;28;20040;-49
2023/11/11 00:58:57;;;;;;;36.92;27.77;;;;;;;;;;5052859;28;20017;-49
2023/11/11 01:01:23;;;;;;;37.17;28.33;;;;;;;;;;5052776;28;20155;-50
2023/11/11 01:03:49;;;;;;;39.53;29.15;;;;;;;;;;5052455;28;20025;-48
2023/11/11 01:06:15;;;;;;;40.38;29.42;;;;;;;;;;5052733;28;20040;-48
2023/11/11 01:08:41;;;;;;;39.35;28.63;;;;;;;;;;5052613;28;20032;-49
2023/11/11 01:11:08;;;;;;;39.90;29.10;;;;;;;;;;5052506;28;20514;-50
2023/11/11 01:13:35;;;;;;;41.00;30.42;;;;;;;;;;5052534;28;20021;-48
2023/11/11 01:16:01;;;;;;;42.83;29.60;;;;;;;;;;5052463;28;20021;-49
2023/11/11 01:18:29;;;;;;;39.85;28.98;;;;;;;;;;5052521;28;20029;-49
2023/11/11 01:20:58;;;;;;;40.80;28.88;;;;;;;;;;5051159;28;20096;-52
2023/11/11 01:23:24;;;;;;;40.25;29.30;;;;;;;;;;5052322;28;20027;-52
2023/11/11 01:25:50;;;;;;;43.80;29.65;;;;;;;;;;5038326;28;20144;-55
2023/11/11 01:28:16;;;;;;;41.65;29.60;;;;;;;;;;5043942;28;20486;-53
2023/11/11 01:30:42;;;;;;;38.65;29.00;;;;;;;;;;5052139;28;20474;-54
2023/11/11 01:33:09;;;;;;;37.25;29.88;;;;;;;;;;5051958;28;20029;-52
2023/11/11 01:35:35;;;;;;;43.45;30.08;;;;;;;;;;5052390;28;20024;-51
2023/11/11 01:38:01;;;;;;;41.65;28.70;;;;;;;;;;5052017;28;20386;-51
2023/11/11 01:40:27;;;;;;;40.88;30.00;;;;;;;;;;5051878;28;20059;-50
2023/11/11 01:42:53;;;;;;;41.28;30.63;;;;;;;;;;5051779;28;20071;-54
2023/11/11 01:45:19;;;;;;;41.45;29.38;;;;;;;;;;5052497;28;20040;-54
2023/11/11 01:47:45;;;;;;;39.58;29.27;;;;;;;;;;5051764;28;20402;-48
2023/11/11 01:50:12;;;;;;;42.13;29.58;;;;;;;;;;5051852;28;20471;-50
2023/11/11 01:52:38;;;;;;;44.15;29.67;;;;;;;;;;5051848;28;20529;-48
2023/11/11 01:55:07;;;;;;;40.30;29.10;;;;;;;;;;5045936;28;20455;-49
2023/11/11 01:57:33;;;;;;;40.20;29.67;;;;;;;;;;5051931;28;20043;-48
2023/11/11 02:00:05;;;;;;;42.67;29.00;;;;;;;;;;5043899;28;20092;-54
2023/11/11 02:02:31;;;;;;;43.03;31.15;;;;;;;;;;5051648;28;20064;-50
2023/11/11 02:04:57;;;;;;;43.15;29.60;;;;;;;;;;5051638;28;20025;-51
2023/11/11 02:07:23;;;;;;;39.45;28.63;;;;;;;;;;5051609;28;20033;-49
2023/11/11 02:09:49;;;;;;;42.58;30.17;;;;;;;;;;5051553;28;20470;-50
2023/11/11 02:12:16;;;;;;;41.50;30.63;;;;;;;;;;5051036;28;20028;-48
2023/11/11 02:14:43;;;;;;;41.75;30.70;;;;;;;;;;5050887;28;20021;-49
2023/11/11 02:17:09;;;;;;;40.72;29.67;;;;;;;;;;5049390;28;20548;-48
2023/11/11 02:19:35;;;;;;;39.65;29.95;;;;;;;;;;5050770;28;20033;-48
2023/11/11 02:22:01;;;;;;;40.97;29.35;;;;;;;;;;5048883;28;20021;-48
2023/11/11 02:24:27;;;;;;;43.08;30.23;;;;;;;;;;5050279;28;20028;-48
2023/11/11 02:26:53;;;;;;;41.70;29.63;;;;;;;;;;5050798;28;20037;-50
2023/11/11 02:29:19;;;;;;;40.97;28.17;;;;;;;;;;5051718;28;20045;-48
2023/11/11 02:31:45;;;;;;;37.78;28.45;;;;;;;;;;5051381;28;20044;-48
2023/11/11 02:34:11;;;;;;;38.92;27.52;;;;;;;;;;5049933;28;20063;-47
2023/11/11 02:36:37;;;;;;;36.78;26.90;;;;;;;;;;5051549;28;20029;-47
2023/11/11 02:39:04;;;;;;;39.85;28.40;;;;;;;;;;5051580;28;20033;-48
2023/11/11 02:41:30;;;;;;;38.50;27.20;;;;;;;;;;5051210;28;20503;-48
2023/11/11 02:43:56;;;;;;;40.13;28.95;;;;;;;;;;5051283;28;20103;-47
2023/11/11 02:46:22;;;;;;;35.25;25.98;;;;;;;;;;5050603;28;20025;-48
2023/11/11 02:48:48;;;;;;;37.17;26.48;;;;;;;;;;5051096;28;20112;-47
2023/11/11 02:51:14;;;;;;;35.50;26.58;;;;;;;;;;5051346;28;20107;-48
2023/11/11 02:53:40;;;;;;;37.15;26.77;;;;;;;;;;5054232;28;20116;-47
2023/11/11 02:56:06;;;;;;;33.35;26.30;;;;;;;;;;5053732;28;20039;-48
2023/11/11 02:58:32;;;;;;;37.38;26.65;;;;;;;;;;5054874;28;20442;-50
2023/11/11 03:00:58;;;;;;;36.95;26.30;;;;;;;;;;5054736;28;20067;-47
2023/11/11 03:03:25;;;;;;;35.23;26.40;;;;;;;;;;5054738;28;20025;-48
2023/11/11 03:05:51;;;;;;;36.95;26.67;;;;;;;;;;5039387;28;20434;-47
2023/11/11 03:08:17;;;;;;;39.05;26.23;;;;;;;;;;5054967;28;20040;-54
2023/11/11 03:10:43;;;;;;;37.95;28.17;;;;;;;;;;5054584;28;20375;-54
2023/11/11 03:13:09;;;;;;;36.22;26.92;;;;;;;;;;5054643;28;20112;-53
2023/11/11 03:15:37;;;;;;;33.37;25.17;;;;;;;;;;5054851;28;20036;-53
2023/11/11 03:18:03;;;;;;;34.38;25.73;;;;;;;;;;5054766;28;20032;-54
2023/11/11 03:20:29;;;;;;;34.53;24.98;;;;;;;;;;5054616;28;20029;-51
2023/11/11 03:22:55;;;;;;;34.47;26.00;;;;;;;;;;5054386;28;20097;-52
2023/11/11 03:25:21;;;;;;;34.63;25.23;;;;;;;;;;5053117;28;20017;-49
2023/11/11 03:27:47;;;;;;;35.40;24.92;;;;;;;;;;5054166;28;20400;-51
2023/11/11 03:30:13;;;;;;;30.42;23.42;;;;;;;;;;5054377;28;20024;-48
2023/11/11 03:32:39;;;;;;;34.17;23.58;;;;;;;;;;5054140;28;20025;-50
2023/11/11 03:35:05;;;;;;;37.77;24.27;;;;;;;;;;5054099;28;20443;-48
2023/11/11 03:37:31;;;;;;;32.22;24.05;;;;;;;;;;5054303;28;20056;-48
2023/11/11 03:39:57;;;;;;;29.50;23.45;;;;;;;;;;5054174;28;20054;-49
2023/11/11 03:42:23;;;;;;;33.20;24.05;;;;;;;;;;5051007;28;20119;-53
2023/11/11 03:44:49;;;;;;;32.22;23.63;;;;;;;;;;5050045;28;20354;-50
2023/11/11 03:47:15;;;;;;;31.70;24.73;;;;;;;;;;5048299;28;20024;-54
2023/11/11 03:49:41;;;;;;;29.77;23.37;;;;;;;;;;5050830;28;20028;-52
2023/11/11 03:52:09;;;;;;;30.88;23.38;;;;;;;;;;5051144;28;20035;-48
2023/11/11 03:54:35;;;;;;;32.80;22.50;;;;;;;;;;5053255;28;20071;-53
2023/11/11 03:57:01;;;;;;;30.45;22.80;;;;;;;;;;5050134;28;20017;-51
2023/11/11 03:59:27;;;;;;;33.22;23.20;;;;;;;;;;5037987;28;20033;-51
2023/11/11 04:01:53;;;;;;;29.83;22.52;;;;;;;;;;5048257;28;20028;-52
2023/11/11 04:04:19;;;;;;;32.85;22.33;;;;;;;;;;5053186;28;20113;-48
2023/11/11 04:06:45;;;;;;;31.15;22.20;;;;;;;;;;5053570;28;20083;-48
2023/11/11 04:09:12;;;;;;;31.53;23.23;;;;;;;;;;5053430;28;20556;-47
2023/11/11 04:11:38;;;;;;;31.55;23.10;;;;;;;;;;5053585;28;20028;-47
2023/11/11 04:14:04;;;;;;;29.05;21.67;;;;;;;;;;5052008;28;20032;-48
2023/11/11 04:16:31;;;;;;;26.63;20.03;;;;;;;;;;5053517;28;20021;-47
2023/11/11 04:18:57;;;;;;;27.50;21.43;;;;;;;;;;5053114;28;20028;-48
2023/11/11 04:21:23;;;;;;;27.98;19.48;;;;;;;;;;5051995;28;20376;-49
2023/11/11 04:23:49;;;;;;;26.47;20.67;;;;;;;;;;5053366;28;20025;-48
2023/11/11 04:26:15;;;;;;;26.75;19.02;;;;;;;;;;5053147;28;20367;-47
2023/11/11 04:28:42;;;;;;;27.30;19.10;;;;;;;;;;5053484;28;20032;-49
2023/11/11 04:31:10;;;;;;;27.00;18.63;;;;;;;;;;5052915;28;20017;-48
2023/11/11 04:33:36;;;;;;;26.52;19.45;;;;;;;;;;5048527;28;20465;-49
2023/11/11 04:36:03;;;;;;;22.47;17.90;;;;;;;;;;5048146;28;20029;-47
2023/11/11 04:38:29;;;;;;;25.17;16.73;;;;;;;;;;5053032;28;20597;-49
2023/11/11 04:40:57;;;;;;;21.70;16.40;;;;;;;;;;5052929;28;20098;-51
2023/11/11 04:43:23;;;;;;;24.77;16.75;;;;;;;;;;5053042;28;20017;-49
2023/11/11 04:45:49;;;;;;;19.67;14.63;;;;;;;;;;5053082;28;20114;-49
2023/11/11 04:48:14;;;;;;;21.50;15.67;;;;;;;;;;5051500;28;20060;-49
2023/11/11 04:50:41;;;;;;;20.20;15.10;;;;;;;;;;5052953;28;20470;-48
2023/11/11 04:53:07;;;;;;;20.00;16.00;;;;;;;;;;5052765;28;20028;-53
2023/11/11 04:55:33;;;;;;;20.73;15.57;;;;;;;;;;5052894;28;20045;-54
2023/11/11 04:57:59;;;;;;;20.60;15.00;;;;;;;;;;5052878;28;20094;-49
2023/11/11 05:00:25;;;;;;;17.33;13.87;;;;;;;;;;5052863;28;20067;-48
2023/11/11 05:02:51;;;;;;;14.83;13.23;;;;;;;;;;5049159;28;20025;-51
2023/11/11 05:05:20;;;;;;;16.75;12.70;;;;;;;;;;5049430;28;20382;-49
2023/11/11 05:07:46;;;;;;;17.08;13.15;;;;;;;;;;5052474;28;20029;-48
2023/11/11 05:10:12;;;;;;;17.00;13.15;;;;;;;;;;5052282;28;20021;-48
2023/11/11 05:12:38;;;;;;;16.93;13.67;;;;;;;;;;5052299;28;20055;-48
2023/11/11 05:15:14;;;;;;;19.67;13.57;;;;;;;;;;5049925;28;20112;-51
2023/11/11 05:17:46;;;;;;;15.75;12.13;;;;;;;;;;5041319;28;20060;-51
2023/11/11 05:20:13;;;;;;;14.23;11.90;;;;;;;;;;5052198;28;20021;-54
2023/11/11 05:22:39;;;;;;;14.88;11.35;;;;;;;;;;5052419;28;20416;-54
2023/11/11 05:25:06;;;;;;;12.70;11.27;;;;;;;;;;5052464;28;20028;-47
2023/11/11 05:27:31;;;;;;;12.40;10.30;;;;;;;;;;5052117;28;20029;-48
2023/11/11 05:29:58;;;;;;;10.25;9.18;;;;;;;;;;5038051;28;20375;-50
2023/11/11 05:32:24;;;;;;;13.20;10.03;;;;;;;;;;5052045;28;20115;-49
2023/11/11 05:34:50;;;;;;;10.27;8.90;;;;;;;;;;5052088;28;20029;-48
2023/11/11 05:37:16;;;;;;;11.20;9.47;;;;;;;;;;5050621;28;20033;-48
2023/11/11 05:39:45;;;;;;;12.40;9.00;;;;;;;;;;5052044;28;20074;-49
2023/11/11 05:42:12;;;;;;;8.27;7.47;;;;;;;;;;5051716;28;20493;-48
2023/11/11 05:44:41;;;;;;;9.20;7.77;;;;;;;;;;5051913;28;20058;-52
2023/11/11 05:47:07;;;;;;;9.30;7.63;;;;;;;;;;5051715;28;20431;-50
2023/11/11 05:49:33;;;;;;;9.23;7.87;;;;;;;;;;5051888;28;20025;-47
2023/11/11 05:52:01;;;;;;;8.63;7.27;;;;;;;;;;5050428;28;20385;-48
2023/11/11 05:54:27;;;;;;;8.40;7.37;;;;;;;;;;5051927;28;20022;-50
2023/11/11 05:56:53;;;;;;;10.60;7.13;;;;;;;;;;5051973;28;20104;-48
2023/11/11 05:59:19;;;;;;;9.03;7.57;;;;;;;;;;5052034;28;20067;-48
2023/11/11 06:01:46;;;;;;;9.80;6.97;;;;;;;;;;5051542;28;20029;-49
2023/11/11 06:04:12;;;;;;;7.97;6.20;;;;;;;;;;5039492;28;20174;-48
2023/11/11 06:06:44;;;;;;;7.78;6.03;;;;;;;;;;5038214;28;20072;-50
2023/11/11 06:09:11;;;;;;;8.60;6.43;;;;;;;;;;5037062;28;20033;-49
2023/11/11 06:11:47;;;;;;;6.97;6.10;;;;;;;;;;5051687;28;20450;-48
2023/11/11 06:14:18;;;;;;;13.03;6.03;;;;;;;;;;5051676;28;20041;-48
2023/11/11 06:16:45;;;;;;;6.57;5.57;;;;;;;;;;5050421;28;20025;-52
2023/11/11 06:19:11;;;;;;;6.53;5.20;;;;;;;;;;5051621;28;20021;-48
2023/11/11 06:21:37;;;;;;;5.30;4.80;;;;;;;;;;5051814;28;20033;-48
2023/11/11 06:24:04;;;;;;;7.93;5.67;;;;;;;;;;5051589;28;20024;-48
2023/11/11 06:26:30;;;;;;;7.47;6.03;;;;;;;;;;5052823;28;20025;-53
2023/11/11 06:28:56;;;;;;;6.03;5.43;;;;;;;;;;5055566;28;20035;-48
2023/11/11 06:31:26;;;;;;;7.10;5.30;;;;;;;;;;5055500;28;20030;-51
2023/11/11 06:33:52;;;;;;;8.43;5.37;;;;;;;;;;5055372;28;20465;-51
2023/11/11 06:36:18;;;;;;;8.40;5.33;;;;;;;;;;5055390;28;20469;-48
2023/11/11 06:38:44;;;;;;;5.87;4.57;;;;;;;;;;5055568;28;20025;-53
2023/11/11 06:41:11;;;;;;;6.17;5.07;;;;;;;;;;5053710;28;20045;-53
2023/11/11 06:43:37;;;;;;;7.87;5.17;;;;;;;;;;5055510;28;20390;-54
2023/11/11 06:46:04;;;;;;;6.00;5.00;;;;;;;;;;5055075;28;20078;-50
2023/11/11 06:48:30;;;;;;;6.77;4.83;;;;;;;;;;5054207;28;20066;-49
2023/11/11 06:50:56;;;;;;;6.53;4.63;;;;;;;;;;5049379;28;20312;-49
2023/11/11 06:53:23;;;;;;;7.07;5.50;;;;;;;;;;5055143;28;20107;-49
2023/11/11 06:55:49;;;;;;;5.10;4.20;;;;;;;;;;5055051;28;20385;-52
2023/11/11 06:58:15;;;;;;;6.03;4.27;;;;;;;;;;5053599;28;20162;-48
2023/11/11 07:00:41;;;;;;;4.80;3.63;;;;;;;;;;5055252;28;20033;-49
2023/11/11 07:03:08;;;;;;;9.00;4.00;;;;;;;;;;5054932;28;20021;-48
2023/11/11 07:05:35;;;;;;;4.80;3.70;;;;;;;;;;5046677;28;20078;-49
2023/11/11 07:08:02;;;;;;;4.27;3.47;;;;;;;;;;5053551;28;20491;-51
2023/11/11 07:10:30;;;;;;;3.87;3.47;;;;;;;;;;5054806;28;20075;-50
2023/11/11 07:12:56;;;;;;;3.60;3.15;;;;;;;;;;5054798;28;20056;-54
2023/11/11 07:15:22;;;;;;;5.68;3.50;;;;;;;;;;5053331;28;20029;-61
2023/11/11 07:17:48;;;;;;;4.22;3.13;;;;;;;;;;5054541;28;20047;-59
2023/11/11 07:20:18;;;;;;;4.07;3.35;;;;;;;;;;5040853;28;20479;-60
2023/11/11 07:22:45;;;;;;;2.88;2.58;;;;;;;;;;5040995;28;20020;-59
2023/11/11 07:25:11;;;;;;;3.78;2.85;;;;;;;;;;5054336;28;20028;-59
2023/11/11 07:27:37;;;;;;;4.53;3.07;;;;;;;;;;5054080;28;20040;-60
2023/11/11 07:30:05;;;;;;;2.95;2.65;;;;;;;;;;5054256;28;20068;-59
2023/11/11 07:32:38;;;;;;;3.17;2.88;;;;;;;;;;5054064;28;20014;-60
2023/11/11 07:35:04;;;;;;;3.38;2.25;;;;;;;;;;5052802;28;20112;-59
2023/11/11 07:37:30;;;;;;;3.45;2.67;;;;;;;;;;5044580;28;20108;-59
2023/11/11 07:39:56;;;;;;;6.20;3.55;;;;;;;;;;5053912;28;20052;-59
2023/11/11 07:42:22;;;;;;;5.25;3.13;;;;;;;;;;5053654;28;20040;-60
2023/11/11 07:44:48;;;;;;;6.60;2.75;;;;;;;;;;5053954;28;20079;-59
2023/11/11 07:47:15;;;;;;;3.85;2.60;;;;;;;;;;5042585;28;20404;-60
2023/11/11 07:49:43;;;;;;;2.20;2.00;;;;;;;;;;5051017;28;20021;-60
2023/11/11 07:52:09;;;;;;;3.33;2.85;;;;;;;;;;5053928;28;20032;-60
2023/11/11 07:54:35;;;;;;;2.80;2.00;;;;;;;;;;5048006;28;20021;-60
2023/11/11 07:57:03;;;;;;;2.97;2.13;;;;;;;;;;5035826;28;20421;-60
2023/11/11 07:59:29;;;;;;;3.08;2.28;;;;;;;;;;5040605;28;20383;-60
2023/11/11 08:01:55;;;;;;;4.40;2.08;;;;;;;;;;5052658;28;20102;-59
2023/11/11 08:04:21;;;;;;;2.47;1.70;;;;;;;;;;5052447;28;20074;-60
2023/11/11 08:06:48;;;;;;;2.67;2.33;;;;;;;;;;5042847;28;20030;-60
2023/11/11 08:09:16;;;;;;;2.90;2.30;;;;;;;;;;5053458;28;20064;-59
2023/11/11 08:11:44;;;;;;;3.78;2.35;;;;;;;;;;5051532;28;20032;-60
2023/11/11 08:14:10;;;;;;;3.40;2.08;;;;;;;;;;5053321;28;20075;-60
2023/11/11 08:16:36;;;;;;;2.53;2.30;;;;;;;;;;5053355;28;20396;-60
2023/11/11 08:19:04;;;;;;;2.67;2.25;;;;;;;;;;5053189;28;20017;-60
2023/11/11 08:21:32;;;;;;;2.88;2.13;;;;;;;;;;5053353;28;20021;-60
2023/11/11 08:24:02;;;;;;;2.83;2.22;;;;;;;;;;5053142;28;20048;-60
2023/11/11 08:26:28;;;;;;;3.17;2.28;;;;;;;;;;5053270;28;20051;-60
2023/11/11 08:28:54;;;;;;;3.03;2.53;;;;;;;;;;5046268;28;20045;-60
2023/11/11 08:31:20;;;;;;;2.28;2.08;;;;;;;;;;5049187;28;20024;-61
2023/11/11 08:33:46;;;;;;;3.33;1.95;;;;;;;;;;5044568;28;20036;-60
2023/11/11 08:36:13;;;;;;;4.65;2.70;;;;;;;;;;5047272;28;20079;-60
2023/11/11 08:38:39;;;;;;;2.75;2.38;;;;;;;;;;5050672;28;20037;-60
2023/11/11 08:41:05;;;;;;;2.22;2.10;;;;;;;;;;5049669;28;20090;-60
2023/11/11 08:43:31;;;;;;;2.60;2.40;;;;;;;;;;5052611;28;20032;-60
2023/11/11 08:45:57;;;;;;;3.30;2.17;;;;;;;;;;5038883;28;20086;-60
2023/11/11 08:48:23;;;;;;;2.35;2.15;;;;;;;;;;5051155;28;20044;-61
2023/11/11 08:50:49;;;;;;;3.47;2.33;;;;;;;;;;5052736;28;20028;-60
2023/11/11 08:53:16;;;;;;;3.22;2.35;;;;;;;;;;5052587;28;20433;-60
2023/11/11 08:55:42;;;;;;;3.80;2.30;;;;;;;;;;5052865;28;20033;-60
2023/11/11 08:58:08;;;;;;;3.20;2.03;;;;;;;;;;5052497;28;20453;-60
2023/11/11 09:00:34;;;;;;;3.05;2.72;;;;;;;;;;5052413;28;20378;-60
2023/11/11 09:03:01;;;;;;;4.85;2.53;;;;;;;;;;5052255;28;20025;-60
2023/11/11 09:05:27;;;;;;;3.78;3.20;;;;;;;;;;5052232;28;20083;-60
2023/11/11 09:07:53;;;;;;;5.07;2.42;;;;;;;;;;5047594;28;20065;-60
2023/11/11 09:10:20;;;;;;;3.15;2.65;;;;;;;;;;5049561;28;20078;-60
2023/11/11 09:12:48;;;;;;;6.05;3.13;;;;;;;;;;5052668;28;20075;-60
2023/11/11 09:15:16;;;;;;;5.50;2.97;;;;;;;;;;5048466;28;20108;-60
2023/11/11 09:17:42;;;;;;;4.07;2.80;;;;;;;;;;5052162;28;20029;-59
2023/11/11 09:20:09;;;;;;;5.25;2.90;;;;;;;;;;5052012;28;20121;-60
2023/11/11 09:22:35;;;;;;;4.45;2.97;;;;;;;;;;5051795;28;20075;-59
2023/11/11 09:25:01;;;;;;;4.55;3.33;;;;;;;;;;5052017;28;20581;-60
2023/11/11 09:27:27;;;;;;;5.53;3.97;;;;;;;;;;5051415;28;20041;-60
2023/11/11 09:29:54;;;;;;;7.72;4.15;;;;;;;;;;5050717;28;20094;-60
2023/11/11 09:32:20;;;;;;;4.53;4.03;;;;;;;;;;5050965;28;20359;-60
2023/11/11 09:34:46;;;;;;;4.68;3.85;;;;;;;;;;5051576;28;20035;-60
2023/11/11 09:37:12;;;;;;;5.75;3.53;;;;;;;;;;5049383;28;20120;-60
2023/11/11 09:39:38;;;;;;;4.57;3.25;;;;;;;;;;5051423;28;20025;-60
2023/11/11 09:42:05;;;;;;;3.95;3.20;;;;;;;;;;5050277;28;20098;-60
2023/11/11 09:44:31;;;;;;;6.15;3.40;;;;;;;;;;5051645;28;20398;-62
2023/11/11 09:46:58;;;;;;;4.93;3.25;;;;;;;;;;5051495;28;20131;-60
2023/11/11 09:49:24;;;;;;;5.68;3.53;;;;;;;;;;5051349;28;20132;-61
2023/11/11 09:51:51;;;;;;;4.47;3.78;;;;;;;;;;5051654;28;20100;-60
2023/11/11 09:54:17;;;;;;;4.80;4.30;;;;;;;;;;5043726;28;20037;-61
2023/11/11 09:56:43;;;;;;;5.93;3.58;;;;;;;;;;5044785;28;20098;-60
2023/11/11 09:59:10;;;;;;;6.53;3.28;;;;;;;;;;5044439;28;20056;-61
2023/11/11 10:01:40;;;;;;;4.10;3.58;;;;;;;;;;5046274;28;20044;-61
2023/11/11 10:04:06;;;;;;;5.78;3.47;;;;;;;;;;5040115;28;20514;-60
2023/11/11 10:06:35;;;;;;;6.22;3.97;;;;;;;;;;5043082;28;20426;-58
2023/11/11 10:09:02;;;;;;;6.25;4.40;;;;;;;;;;5041101;28;20033;-60
2023/11/11 10:11:28;;;;;;;6.00;4.10;;;;;;;;;;5044804;28;20079;-61
2023/11/11 10:13:55;;;;;;;5.30;4.20;;;;;;;;;;5046778;28;20355;-63
2023/11/11 10:16:27;;;;;;;5.70;4.38;;;;;;;;;;5045653;28;20031;-63
2023/11/11 10:18:57;;;;;;;5.97;4.38;;;;;;;;;;5054009;28;20025;-63
2023/11/11 10:21:23;;;;;;;4.20;3.80;;;;;;;;;;5054195;28;20086;-63
2023/11/11 10:23:49;;;;;;;4.90;4.40;;;;;;;;;;5063848;28;20504;-63
2023/11/11 10:26:16;;;;;;;4.45;3.70;;;;;;;;;;5050313;28;20439;-63
2023/11/11 10:28:42;;;;;;;4.70;3.10;;;;;;;;;;5042561;28;20079;-63
2023/11/11 10:31:09;;;;;;;3.70;3.03;;;;;;;;;;5037591;28;20061;-63
2023/11/11 10:33:35;;;;;;;4.65;3.33;;;;;;;;;;5033365;28;21588;-63
2023/11/11 10:36:02;;;;;;;5.78;3.67;;;;;;;;;;5039147;28;20024;-63
2023/11/11 10:38:28;;;;;;;5.88;4.10;;;;;;;;;;5050097;28;20424;-63
2023/11/11 10:40:54;;;;;;;10.00;4.70;;;;;;;;;;5048068;28;20055;-63
2023/11/11 10:43:20;;;;;;;8.82;4.68;;;;;;;;;;5049675;28;20862;-63
2023/11/11 10:45:49;;;;;;;5.55;4.97;;;;;;;;;;5050397;28;20016;-63
2023/11/11 10:48:15;;;;;;;6.22;4.97;;;;;;;;;;5041287;28;20048;-63
2023/11/11 10:50:44;;;;;;;5.32;4.53;;;;;;;;;;5034350;28;20096;-63
2023/11/11 10:53:10;;;;;;;6.72;4.60;;;;;;;;;;5049077;28;20048;-60
2023/11/11 10:55:38;;;;;;;6.95;5.55;;;;;;;;;;5043350;28;20467;-60
2023/11/11 10:58:07;;;;;;;8.70;5.50;;;;;;;;;;5050366;28;20039;-63
2023/11/11 11:00:34;;;;;;;7.97;4.70;;;;;;;;;;5048915;28;20048;-63
2023/11/11 11:03:00;;;;;;;6.35;5.07;;;;;;;;;;5049465;28;20052;-63
2023/11/11 11:05:26;;;;;;;6.90;4.55;;;;;;;;;;5045564;28;20021;-64
2023/11/11 11:07:57;;;;;;;6.40;3.90;;;;;;;;;;5044577;28;20489;-64
2023/11/11 11:10:28;;;;;;;3.53;2.95;;;;;;;;;;5042079;28;20063;-64
2023/11/11 11:12:57;;;;;;;3.10;2.38;;;;;;;;;;5041872;28;20074;-64
2023/11/11 11:15:25;;;;;;;2.67;2.05;;;;;;;;;;5046235;28;20021;-64
2023/11/11 11:17:53;;;;;;;2.97;2.22;;;;;;;;;;5046111;28;20024;-62
2023/11/11 11:20:25;;;;;;;2.28;2.08;;;;;;;;;;5045215;28;20021;-63
2023/11/11 11:22:57;;;;;;;5.03;2.33;;;;;;;;;;5044001;28;20040;-62
2023/11/11 11:25:33;;;;;;;4.00;1.90;;;;;;;;;;5045063;28;20455;-60
2023/11/11 11:28:11;;;;;;;8.55;2.15;;;;;;;;;;5048171;28;20478;-59
2023/11/11 11:30:50;;;;;;;2.28;1.70;;;;;;;;;;5046919;28;20386;-59
2023/11/11 11:33:26;;;;;;;5.57;2.38;;;;;;;;;;5046280;28;20398;-55
2023/11/11 11:35:56;;;;;;;4.45;2.13;;;;;;;;;;5046222;28;20048;-52
2023/11/11 11:38:33;;;;;;;4.50;2.60;;;;;;;;;;5048112;28;20057;-54
2023/11/11 11:41:01;;;;;;;3.45;2.75;;;;;;;;;;5046533;28;20403;-49
2023/11/11 11:43:31;;;;;;;2.45;2.20;;;;;;;;;;5045411;28;20120;-54
2023/11/11 11:45:58;;;;;;;3.00;1.90;;;;;;;;;;5044974;28;20025;-52
2023/11/11 11:48:28;;;;;;;3.63;2.35;;;;;;;;;;5045627;28;20119;-49
2023/11/11 11:51:03;;;;;;;3.10;2.03;;;;;;;;;;5045659;28;20036;-51
2023/11/11 11:53:29;;;;;;;2.58;1.90;;;;;;;;;;5041750;28;20037;-54
2023/11/11 11:55:55;;;;;;;2.55;1.77;;;;;;;;;;5046226;28;20049;-54
2023/11/11 11:58:21;;;;;;;2.45;1.90;;;;;;;;;;5048277;28;20033;-53
2023/11/11 12:00:47;;;;;;;3.30;1.65;;;;;;;;;;5048944;28;20102;-52
2023/11/11 12:03:13;;;;;;;2.88;1.67;;;;;;;;;;5043778;28;20036;-53
2023/11/11 12:05:39;;;;;;;3.85;2.33;;;;;;;;;;5048686;28;20033;-50
2023/11/11 12:08:05;;;;;;;2.65;1.88;;;;;;;;;;5047439;28;20037;-49
2023/11/11 12:11:09;;;;;;;3.72;1.88;;;;;;;;;;5045120;28;20033;-50
2023/11/11 12:13:38;;;;;;;2.85;2.20;;;;;;;;;;5046748;28;20418;-53
2023/11/11 12:16:04;;;;;;;2.30;1.60;;;;;;;;;;5045713;28;20416;-52
2023/11/11 12:18:30;;;;;;;3.22;1.92;;;;;;;;;;5048655;28;20037;-51
2023/11/11 12:20:56;;;;;;;3.42;2.00;;;;;;;;;;5044492;28;20025;-51
2023/11/11 12:23:22;;;;;;;2.13;1.73;;;;;;;;;;5046804;28;20040;-52
2023/11/11 12:25:48;;;;;;;3.70;1.92;;;;;;;;;;5044719;28;20025;-54
2023/11/11 12:28:16;;;;;;;4.45;1.80;;;;;;;;;;5045400;28;20061;-52
2023/11/11 12:30:42;;;;;;;2.63;1.65;;;;;;;;;;5044204;28;20017;-49
2023/11/11 12:33:09;;;;;;;1.98;1.55;;;;;;;;;;5042791;28;20029;-51
2023/11/11 12:35:40;;;;;;;2.72;1.80;;;;;;;;;;5048113;28;20098;-53
2023/11/11 12:38:27;;;;;;;1.80;1.45;;;;;;;;;;5047810;28;20025;-52
2023/11/11 12:40:53;;;;;;;5.65;2.00;;;;;;;;;;5045166;28;20048;-51
2023/11/11 12:43:20;;;;;;;3.17;1.90;;;;;;;;;;5042999;28;20116;-49
2023/11/11 12:45:47;;;;;;;2.17;1.40;;;;;;;;;;5045335;28;20021;-51
2023/11/11 12:48:16;;;;;;;2.97;1.30;;;;;;;;;;5045771;28;20094;-51
2023/11/11 12:50:42;;;;;;;4.13;2.10;;;;;;;;;;5044596;28;20039;-50
2023/11/11 12:53:13;;;;;;;2.80;2.00;;;;;;;;;;5049209;28;20471;-52
2023/11/11 12:55:41;;;;;;;1.88;1.42;;;;;;;;;;5046876;28;20063;-50
2023/11/11 12:58:26;;;;;;;3.58;1.42;;;;;;;;;;5036682;28;20108;-48
2023/11/11 13:01:04;;;;;;;1.48;1.08;;;;;;;;;;5047170;28;20025;-49
2023/11/11 13:03:30;;;;;;;10.57;1.52;;;;;;;;;;5052245;28;20013;-47
2023/11/11 13:05:57;;;;;;;2.25;1.52;;;;;;;;;;5046820;28;20030;-49
2023/11/11 13:08:24;;;;;;;1.80;1.20;;;;;;;;;;5037796;28;20030;-51
2023/11/11 13:10:54;;;;;;;7.20;1.35;;;;;;;;;;5042816;28;20470;-49
2023/11/11 13:13:20;;;;;;;1.45;1.10;;;;;;;;;;5038722;28;20103;-48
2023/11/11 13:15:48;;;;;;;3.20;1.70;;;;;;;;;;5052122;28;20024;-49
2023/11/11 13:18:14;;;;;;;1.45;1.15;;;;;;;;;;5052215;28;20017;-47
2023/11/11 13:20:41;;;;;;;4.38;1.30;;;;;;;;;;5051524;28;20023;-50
2023/11/11 13:23:08;;;;;;;1.70;1.02;;;;;;;;;;5046261;28;20116;-49
2023/11/11 13:25:36;;;;;;;2.38;1.20;;;;;;;;;;5047971;28;20060;-53
2023/11/11 13:28:03;;;;;;;3.63;1.20;;;;;;;;;;5048595;28;20037;-52
2023/11/11 13:30:29;;;;;;;2.35;1.42;;;;;;;;;;5050881;28;20151;-51
2023/11/11 13:32:55;;;;;;;3.78;1.92;;;;;;;;;;5049062;28;20451;-47
2023/11/11 13:35:21;;;;;;;3.85;1.67;;;;;;;;;;5047814;28;20104;-53
2023/11/11 13:37:47;;;;;;;1.65;1.15;;;;;;;;;;5039936;28;20095;-48
2023/11/11 13:40:28;;;;;;;1.15;1.05;;;;;;;;;;5049733;28;20025;-48
2023/11/11 13:42:55;;;;;;;1.60;1.02;;;;;;;;;;5051461;28;20071;-52
2023/11/11 13:45:24;;;;;;;2.78;1.73;;;;;;;;;;5051725;28;20013;-51
2023/11/11 13:47:51;;;;;;;4.15;1.30;;;;;;;;;;5037350;28;20550;-49
2023/11/11 13:50:18;;;;;;;3.67;1.27;;;;;;;;;;5045968;28;20013;-51
2023/11/11 13:52:44;;;;;;;2.47;1.55;;;;;;;;;;5051549;28;20025;-47
2023/11/11 13:55:10;;;;;;;1.25;0.75;;;;;;;;;;5051652;28;20031;-49
2023/11/11 13:57:36;;;;;;;1.10;1.00;;;;;;;;;;5051632;28;20034;-50
2023/11/11 14:00:03;;;;;;;2.20;1.33;;;;;;;;;;5051453;28;20021;-48
2023/11/11 14:02:29;;;;;;;1.83;1.15;;;;;;;;;;5051610;28;20025;-49
2023/11/11 14:04:56;;;;;;;4.07;1.58;;;;;;;;;;5051567;28;20044;-48
2023/11/11 14:07:22;;;;;;;2.30;1.27;;;;;;;;;;5051580;28;20033;-48
2023/11/11 14:09:48;;;;;;;3.00;1.23;;;;;;;;;;5051527;28;20029;-50
2023/11/11 14:12:14;;;;;;;1.80;1.48;;;;;;;;;;5043325;28;20328;-53
2023/11/11 14:14:40;;;;;;;2.90;1.08;;;;;;;;;;5040304;28;20029;-48
2023/11/11 14:17:06;;;;;;;1.33;0.98;;;;;;;;;;5036084;28;20374;-49
2023/11/11 14:19:32;;;;;;;2.60;0.90;;;;;;;;;;5043594;28;20025;-49
2023/11/11 14:22:01;;;;;;;2.97;0.85;;;;;;;;;;5044328;28;20101;-48
2023/11/11 14:24:27;;;;;;;1.00;0.70;;;;;;;;;;5051437;28;20025;-50
2023/11/11 14:26:53;;;;;;;1.98;1.13;;;;;;;;;;5051445;28;20020;-48
2023/11/11 14:29:19;;;;;;;1.33;0.90;;;;;;;;;;5051306;28;20025;-49
2023/11/11 14:31:45;;;;;;;1.02;0.80;;;;;;;;;;5051387;28;20060;-48